createdAt,value
2019-01-18T00:00:45.164Z,100.00
2019-01-18T00:05:48.602Z,100.00
2019-01-18T00:10:52.094Z,100.00
2019-01-18T00:15:55.507Z,100.00
2019-01-18T00:20:58.913Z,100.00
2019-01-18T00:26:02.417Z,100.00
2019-01-18T00:31:05.977Z,100.00
2019-01-18T00:36:09.407Z,100.00
2019-01-18T00:41:12.845Z,100.00
2019-01-18T00:46:16.266Z,100.00
2019-01-18T00:51:19.681Z,100.00
2019-01-18T00:56:23.109Z,100.00
2019-01-18T01:01:26.522Z,100.00
2019-01-18T01:06:29.961Z,100.00
2019-01-18T01:11:33.453Z,100.00
2019-01-18T01:16:36.868Z,100.00
2019-01-18T01:21:40.317Z,100.00
2019-01-18T01:26:43.750Z,100.00
2019-01-18T01:31:47.163Z,100.00
2019-01-18T01:36:50.620Z,100.00
2019-01-18T01:41:54.019Z,100.00
2019-01-18T01:46:57.437Z,100.00
2019-01-18T01:52:00.866Z,100.00
2019-01-18T01:57:04.385Z,100.00
2019-01-18T02:02:07.808Z,100.00
2019-01-18T02:07:11.229Z,100.00
2019-01-18T02:12:14.671Z,100.00
2019-01-18T02:17:18.118Z,100.00
2019-01-18T02:22:21.553Z,100.00
2019-01-18T02:27:24.984Z,100.00
2019-01-18T02:32:28.550Z,100.00
2019-01-18T02:37:32.004Z,100.00
2019-01-18T02:42:35.431Z,100.00
2019-01-18T02:47:38.849Z,100.00
2019-01-18T02:52:42.296Z,100.00
2019-01-18T02:57:45.909Z,100.00
2019-01-18T03:02:49.469Z,100.00
2019-01-18T03:07:53.074Z,100.00
2019-01-18T03:12:56.495Z,100.00
2019-01-18T03:17:59.921Z,100.00
2019-01-18T03:23:03.345Z,100.00
2019-01-18T03:28:06.834Z,100.00
2019-01-18T03:33:10.258Z,100.00
2019-01-18T03:38:13.673Z,100.00
2019-01-18T03:43:17.101Z,100.00
2019-01-18T03:48:22.851Z,100.00
2019-01-18T03:53:25.853Z,100.00
2019-01-18T03:58:29.275Z,100.00
2019-01-18T04:03:32.702Z,100.00
2019-01-18T04:08:36.138Z,100.00
2019-01-18T04:13:39.546Z,100.00
2019-01-18T04:18:42.983Z,100.00
2019-01-18T04:23:46.877Z,100.00
2019-01-18T04:28:50.370Z,100.00
2019-01-18T04:33:53.781Z,100.00
2019-01-18T04:38:57.207Z,100.00
2019-01-18T04:44:00.644Z,100.00
2019-01-18T04:49:04.169Z,100.00
2019-01-18T04:54:07.664Z,100.00
2019-01-18T04:59:11.086Z,100.00
2019-01-18T05:04:14.697Z,100.00
2019-01-18T05:09:18.115Z,100.00
2019-01-18T05:14:21.535Z,100.00
2019-01-18T05:19:24.950Z,100.00
2019-01-18T05:24:28.389Z,100.00
2019-01-18T05:29:31.831Z,100.00
2019-01-18T05:34:35.247Z,100.00
2019-01-18T05:39:38.684Z,100.00
2019-01-18T05:44:42.212Z,100.00
2019-01-18T05:49:45.626Z,100.00
2019-01-18T05:54:49.058Z,100.00
2019-01-18T05:59:52.476Z,100.00
2019-01-18T06:04:56.295Z,100.00
2019-01-18T06:09:59.728Z,100.00
2019-01-18T06:15:03.246Z,100.00
2019-01-18T06:20:09.727Z,100.00
2019-01-18T06:25:13.227Z,100.00
2019-01-18T06:30:25.150Z,100.00
2019-01-18T06:35:28.099Z,100.00
2019-01-18T06:40:31.676Z,100.00
2019-01-18T06:45:35.263Z,100.00
2019-01-18T06:50:38.705Z,100.00
2019-01-18T06:55:42.142Z,100.00
2019-01-18T07:00:45.565Z,100.00
2019-01-18T07:05:49.080Z,100.00
2019-01-18T07:10:52.522Z,100.00
2019-01-18T07:15:55.959Z,100.00
2019-01-18T07:20:59.393Z,100.00
2019-01-18T07:26:02.860Z,100.00
2019-01-18T07:31:06.306Z,100.00
2019-01-18T07:36:09.811Z,100.00
2019-01-18T07:41:13.335Z,100.00
2019-01-18T07:46:17.615Z,100.00
2019-01-18T07:51:21.161Z,100.00
2019-01-18T07:56:25.171Z,100.00
2019-01-18T08:01:28.591Z,100.00
2019-01-18T08:06:32.113Z,100.00
2019-01-18T08:11:35.615Z,100.00
2019-01-18T08:16:39.037Z,100.00
2019-01-18T08:21:42.538Z,100.00
2019-01-18T08:26:45.970Z,100.00
2019-01-18T08:31:49.413Z,100.00
2019-01-18T08:36:52.843Z,100.00
2019-01-18T08:41:56.276Z,100.00
2019-01-18T08:46:59.713Z,100.00
2019-01-18T08:52:03.142Z,100.00
2019-01-18T08:57:06.563Z,100.00
2019-01-18T09:02:09.984Z,100.00
2019-01-18T09:07:13.493Z,100.00
2019-01-18T09:12:16.930Z,100.00
2019-01-18T09:17:20.367Z,100.00
2019-01-18T09:22:23.777Z,100.00
2019-01-18T09:27:27.197Z,100.00
2019-01-18T09:32:30.721Z,100.00
2019-01-18T09:37:34.242Z,100.00
2019-01-18T09:42:37.669Z,100.00
2019-01-18T09:47:41.340Z,99.20
2019-01-18T09:52:45.003Z,98.94
2019-01-18T09:57:48.437Z,97.34
2019-01-18T10:02:51.927Z,96.35
2019-01-18T10:07:55.353Z,94.71
2019-01-18T10:12:59.188Z,92.35
2019-01-18T10:18:02.611Z,89.87
2019-01-18T10:23:06.405Z,88.28
2019-01-18T10:28:10.199Z,88.43
2019-01-18T10:33:13.622Z,86.69
2019-01-18T10:38:17.148Z,87.25
2019-01-18T10:43:20.817Z,88.06
2019-01-18T10:48:24.508Z,87.31
2019-01-18T10:53:28.124Z,84.41
2019-01-18T10:58:31.532Z,83.67
2019-01-18T11:03:34.962Z,81.31
2019-01-18T11:08:38.399Z,80.92
2019-01-18T11:13:41.839Z,79.00
2019-01-18T11:18:45.275Z,80.17
2019-01-18T11:23:48.704Z,77.57
2019-01-18T11:28:52.117Z,77.38
2019-01-18T11:33:55.548Z,78.37
2019-01-18T11:38:58.971Z,77.51
2019-01-18T11:44:02.532Z,76.02
2019-01-18T11:49:05.952Z,76.22
2019-01-18T11:54:09.392Z,75.42
2019-01-18T11:59:12.915Z,73.22
2019-01-18T12:04:16.321Z,74.31
2019-01-18T12:09:19.762Z,73.82
2019-01-18T12:14:23.180Z,74.41
2019-01-18T12:19:26.614Z,75.87
2019-01-18T12:24:30.041Z,74.60
2019-01-18T12:29:33.600Z,73.96
2019-01-18T12:34:38.760Z,75.22
2019-01-18T12:39:42.213Z,76.64
2019-01-18T12:44:45.646Z,75.09
2019-01-18T12:49:49.074Z,73.39
2019-01-18T12:54:52.504Z,73.33
2019-01-18T12:59:56.018Z,71.77
2019-01-18T13:04:59.443Z,75.31
2019-01-18T13:10:02.919Z,76.01
2019-01-18T13:15:21.297Z,76.11
2019-01-18T13:20:24.747Z,73.60
2019-01-18T13:25:28.258Z,71.20
2019-01-18T13:30:31.676Z,70.97
2019-01-18T13:35:35.096Z,70.80
2019-01-18T13:40:38.526Z,71.64
2019-01-18T13:45:41.940Z,68.40
2019-01-18T13:50:45.363Z,70.15
2019-01-18T13:55:48.763Z,72.17
2019-01-18T14:00:52.201Z,71.55
2019-01-18T14:05:55.624Z,70.75
2019-01-18T14:10:59.058Z,72.76
2019-01-18T14:16:02.467Z,72.90
2019-01-18T14:21:06.011Z,75.83
2019-01-18T14:26:09.482Z,74.04
2019-01-18T14:31:12.884Z,75.71
2019-01-18T14:36:16.306Z,74.77
2019-01-18T14:41:20.922Z,74.78
2019-01-18T14:46:24.432Z,76.28
2019-01-18T14:51:27.977Z,77.10
2019-01-18T14:56:31.412Z,76.29
2019-01-18T15:01:34.839Z,78.61
2019-01-18T15:06:38.248Z,81.35
2019-01-18T15:11:41.703Z,83.79
2019-01-18T15:16:45.125Z,85.46
2019-01-18T15:21:48.627Z,87.33
2019-01-18T15:26:52.048Z,87.22
2019-01-18T15:31:55.462Z,88.18
2019-01-18T15:36:59.652Z,89.23
2019-01-18T15:42:03.068Z,90.33
2019-01-18T15:47:06.500Z,90.28
2019-01-18T15:52:09.926Z,91.28
2019-01-18T15:57:13.367Z,92.30
2019-01-18T16:02:16.929Z,92.76
2019-01-18T16:07:20.401Z,94.56
2019-01-18T16:12:23.830Z,93.94
2019-01-18T16:17:27.536Z,94.51
2019-01-18T16:22:30.963Z,95.77
2019-01-18T16:27:34.393Z,95.84
2019-01-18T16:32:37.813Z,97.53
2019-01-18T16:37:41.305Z,97.12
2019-01-18T16:42:47.145Z,96.06
2019-01-18T16:47:50.582Z,95.86
2019-01-18T16:52:54.083Z,96.93
2019-01-18T16:57:57.509Z,98.82
2019-01-18T17:03:00.965Z,96.00
2019-01-18T17:08:04.743Z,100.00
2019-01-18T17:13:08.243Z,98.49
2019-01-18T17:18:12.998Z,100.00
2019-01-18T17:23:16.489Z,98.45
2019-01-18T17:28:20.014Z,96.27
2019-01-18T17:33:23.463Z,100.00
2019-01-18T17:38:50.897Z,100.00
2019-01-18T17:44:06.401Z,100.00
2019-01-18T17:49:12.882Z,99.04
2019-01-18T17:54:27.954Z,97.71
2019-01-18T17:59:58.458Z,98.68
2019-01-18T18:05:16.830Z,100.00
2019-01-18T18:10:38.175Z,100.00
2019-01-18T18:15:50.611Z,98.08
2019-01-18T18:21:11.720Z,97.10
2019-01-18T18:26:24.047Z,100.00
2019-01-18T18:31:54.524Z,97.29
2019-01-18T18:37:06.886Z,98.72
2019-01-18T18:42:19.033Z,100.00
2019-01-18T18:47:28.427Z,100.00
2019-01-18T18:52:40.697Z,98.06
2019-01-18T18:57:55.938Z,96.91
2019-01-18T19:03:08.161Z,94.65
2019-01-18T19:08:29.200Z,100.00
2019-01-18T19:13:59.814Z,100.00
2019-01-18T19:19:15.301Z,97.29
2019-01-18T19:24:36.652Z,100.00
2019-01-18T19:29:55.140Z,100.00
2019-01-18T19:35:02.606Z,97.71
2019-01-18T19:40:24.065Z,100.00
2019-01-18T19:45:42.476Z,100.00
2019-01-18T19:51:05.533Z,99.87
2019-01-18T19:56:12.042Z,97.69
2019-01-18T20:01:36.443Z,93.62
2019-01-18T20:07:06.742Z,95.17
2019-01-18T20:12:16.062Z,100.00
2019-01-18T20:17:25.322Z,100.00
2019-01-18T20:22:46.530Z,97.83
2019-01-18T20:27:55.986Z,98.02
2019-01-18T20:33:36.951Z,95.36
2019-01-18T20:38:52.387Z,93.52
2019-01-18T20:44:01.463Z,97.90
2019-01-18T20:49:16.737Z,96.45
2019-01-18T20:54:57.749Z,91.68
2019-01-18T21:00:25.229Z,98.81
2019-01-18T21:05:40.346Z,100.00
2019-01-18T21:10:49.711Z,98.41
2019-01-18T21:16:27.517Z,100.00
2019-01-18T21:21:36.943Z,99.30
2019-01-18T21:26:49.413Z,96.71
2019-01-18T21:32:04.490Z,95.99
2019-01-18T21:37:26.059Z,98.21
2019-01-18T21:42:38.571Z,100.00
2019-01-18T21:47:45.064Z,100.00
2019-01-18T21:53:12.822Z,100.00
2019-01-18T21:58:19.318Z,99.29
2019-01-18T22:03:28.325Z,100.00
2019-01-18T22:08:52.829Z,98.28
2019-01-18T22:14:26.459Z,99.49
2019-01-18T22:19:36.000Z,100.00
2019-01-18T22:24:51.211Z,99.90
2019-01-18T22:30:09.969Z,99.10
2019-01-18T22:35:19.099Z,98.77
2019-01-18T22:40:43.288Z,97.40
2019-01-18T22:45:55.798Z,99.65
2019-01-18T22:51:21.863Z,100.00
2019-01-18T22:56:34.238Z,99.29
2019-01-18T23:01:43.878Z,97.56
2019-01-18T23:07:08.239Z,97.15
2019-01-18T23:12:20.687Z,99.48
2019-01-18T23:17:35.974Z,95.28
2019-01-18T23:23:02.566Z,98.20
2019-01-18T23:28:14.781Z,98.18
2019-01-18T23:33:45.347Z,100.00
2019-01-18T23:39:18.894Z,100.00
2019-01-18T23:44:37.301Z,100.00
2019-01-18T23:50:04.675Z,100.00
2019-01-18T23:55:42.963Z,99.51
